Time;durP1;ratioP1;P1;durP2;ratioP2;P2;SDS_P1;SDS_P2;PMS_P1;PMS_P2;Temp;Humidity;BMP_temperature;BMP_pressure;BME280_temperature;BME280_humidity;BME280_pressure;Samples;Min_cycle;Max_cycle;Signal;HPM_P1;HPM_P2
2024/01/03 00:01:00;;;;;;;;;5.00;5.00;;;;;21.53;51.85;98813.28;110091;1249;19645;-31
2024/01/03 00:03:38;;;;;;;;;5.00;4.00;;;;;21.54;51.88;98809.66;110143;1257;19516;-31
2024/01/03 00:06:06;;;;;;;;;7.00;5.00;;;;;21.54;52.00;98809.56;110115;1262;21953;-30
2024/01/03 00:08:34;;;;;;;;;4.00;4.00;;;;;21.54;51.90;98806.07;110159;1257;20819;-30
2024/01/03 00:11:01;;;;;;;;;4.00;4.00;;;;;21.54;51.69;98799.05;110048;1247;19361;-30
2024/01/03 00:13:29;;;;;;;;;7.00;5.00;;;;;21.54;51.74;98798.91;110102;1256;19983;-30
2024/01/03 00:15:56;;;;;;;;;7.00;5.00;;;;;21.53;51.86;98793.04;109746;1262;527629;-31
2024/01/03 00:18:23;;;;;;;;;5.00;5.00;;;;;21.54;51.82;98788.70;110172;1249;19470;-30
2024/01/03 00:20:51;;;;;;;;;4.00;4.00;;;;;21.53;51.74;98783.29;110157;1247;20011;-31
2024/01/03 00:23:18;;;;;;;;;5.00;5.00;;;;;21.53;51.70;98781.75;110146;1249;20930;-30
2024/01/03 00:25:45;;;;;;;;;5.00;5.00;;;;;21.54;51.66;98778.92;110136;1247;20512;-30
2024/01/03 00:28:13;;;;;;;;;2.00;2.00;;;;;21.53;51.55;98776.74;110171;1248;20229;-31
2024/01/03 00:30:40;;;;;;;;;4.00;4.00;;;;;21.51;51.58;98774.83;110122;1248;20342;-31
2024/01/03 00:33:07;;;;;;;;;5.00;4.00;;;;;21.52;51.42;98770.88;110144;1248;19319;-31
2024/01/03 00:35:35;;;;;;;;;4.00;4.00;;;;;21.53;51.43;98764.86;110061;1249;21194;-31
2024/01/03 00:38:02;;;;;;;;;4.67;4.33;;;;;21.54;51.49;98762.19;110108;1249;19639;-30
2024/01/03 00:40:29;;;;;;;;;5.00;5.00;;;;;21.54;51.41;98762.32;110081;1264;19276;-31
2024/01/03 00:42:57;;;;;;;;;8.00;4.00;;;;;21.51;51.42;98763.77;110094;1258;19953;-31
2024/01/03 00:45:24;;;;;;;;;4.00;4.00;;;;;21.54;51.35;98759.70;110084;1252;20886;-30
2024/01/03 00:47:52;;;;;;;;;7.00;5.00;;;;;21.52;51.48;98754.95;110097;1258;19324;-31
2024/01/03 00:50:19;;;;;;;;;2.00;2.00;;;;;21.51;51.23;98750.11;110078;1249;20042;-31
2024/01/03 00:52:46;;;;;;;;;4.00;4.00;;;;;21.50;51.02;98748.98;110061;1264;22325;-31
2024/01/03 00:55:14;;;;;;;;;5.00;5.00;;;;;21.51;51.04;98742.80;110083;1250;19328;-30
2024/01/03 00:57:41;;;;;;;;;5.00;5.00;;;;;21.52;51.22;98746.75;110099;1251;19898;-31
2024/01/03 01:00:08;;;;;;;;;9.00;7.00;;;;;21.50;51.21;98745.09;110062;1257;19596;-31
2024/01/03 01:02:36;;;;;;;;;4.50;4.00;;;;;21.50;51.30;98743.99;110085;1249;19370;-31
2024/01/03 01:05:03;;;;;;;;;6.00;4.50;;;;;21.51;50.88;98740.46;110089;1249;18730;-31
2024/01/03 01:07:30;;;;;;;;;4.00;4.00;;;;;21.51;51.20;98741.18;110075;1264;18987;-32
2024/01/03 01:09:58;;;;;;;;;4.00;4.00;;;;;21.51;50.99;98734.79;110082;1249;19370;-31
2024/01/03 01:12:25;;;;;;;;;5.00;4.00;;;;;21.51;50.83;98728.13;110124;1264;18621;-31
2024/01/03 01:14:52;;;;;;;;;6.33;5.67;;;;;21.50;51.13;98723.55;110090;1249;19645;-32
2024/01/03 01:17:19;;;;;;;;;5.00;4.00;;;;;21.49;51.00;98720.92;110065;1249;19118;-32
2024/01/03 01:19:47;;;;;;;;;5.00;4.00;;;;;21.50;50.89;98717.63;110062;1251;20026;-31
2024/01/03 01:22:14;;;;;;;;;4.50;4.50;;;;;21.49;50.89;98712.95;110067;1264;21914;-32
2024/01/03 01:24:41;;;;;;;;;4.50;4.50;;;;;21.50;51.00;98711.02;110080;1251;19168;-32
2024/01/03 01:27:09;;;;;;;;;5.00;4.00;;;;;21.49;50.75;98710.03;110082;1264;18634;-32
2024/01/03 01:29:36;;;;;;;;;4.00;4.00;;;;;21.48;50.78;98707.54;110076;1251;22325;-31
2024/01/03 01:32:03;;;;;;;;;7.00;5.00;;;;;21.48;50.86;98703.23;110075;1249;19431;-32
2024/01/03 01:34:31;;;;;;;;;4.00;4.00;;;;;21.48;50.85;98694.75;110123;1249;19994;-32
2024/01/03 01:36:58;;;;;;;;;4.50;4.00;;;;;21.48;51.09;98692.63;110120;1264;19012;-31
2024/01/03 01:39:25;;;;;;;;;5.00;4.50;;;;;21.48;50.83;98687.19;110120;1250;19441;-32
2024/01/03 01:41:53;;;;;;;;;4.00;4.00;;;;;21.48;50.79;98682.45;110128;1263;21835;-31
2024/01/03 01:44:20;;;;;;;;;4.00;3.00;;;;;21.47;51.01;98677.45;110138;1257;18228;-31
2024/01/03 01:46:47;;;;;;;;;4.00;4.00;;;;;21.47;50.75;98671.96;110124;1263;19817;-30
2024/01/03 01:49:14;;;;;;;;;5.50;4.50;;;;;21.47;50.66;98664.30;110110;1249;20937;-31
2024/01/03 01:51:42;;;;;;;;;3.00;3.00;;;;;21.47;50.78;98658.83;110149;1257;19521;-30
2024/01/03 01:54:09;;;;;;;;;5.00;5.00;;;;;21.47;50.67;98654.79;110120;1264;19240;-31
2024/01/03 01:56:36;;;;;;;;;4.00;4.00;;;;;21.46;50.72;98656.08;110081;1263;21933;-31
2024/01/03 01:59:04;;;;;;;;;5.00;4.00;;;;;21.46;50.68;98647.20;110121;1264;18200;-30
2024/01/03 02:01:31;;;;;;;;;5.00;4.00;;;;;21.47;50.62;98642.55;110115;1264;22032;-31
2024/01/03 02:03:58;;;;;;;;;4.00;4.00;;;;;21.46;50.72;98640.50;110111;1264;18569;-31
2024/01/03 02:06:26;;;;;;;;;4.00;4.00;;;;;21.45;50.67;98635.89;110109;1257;19577;-30
2024/01/03 02:08:53;;;;;;;;;5.00;4.00;;;;;21.45;50.53;98632.52;110108;1248;22062;-30
2024/01/03 02:11:20;;;;;;;;;4.67;4.67;;;;;21.46;50.55;98630.23;110113;1249;19884;-30
2024/01/03 02:13:48;;;;;;;;;5.00;4.00;;;;;21.45;50.37;98626.46;110137;1249;20868;-30
2024/01/03 02:16:15;;;;;;;;;;;;;;;21.44;50.49;98621.59;110111;1264;17951;-30
2024/01/03 02:18:42;;;;;;;;;5.00;4.00;;;;;21.46;50.52;98625.31;110135;1247;22844;-31
2024/01/03 02:21:09;;;;;;;;;7.00;4.00;;;;;21.45;50.52;98620.06;110119;1257;19178;-30
2024/01/03 02:23:37;;;;;;;;;4.00;4.00;;;;;21.45;50.40;98618.58;110145;1249;19321;-30
2024/01/03 02:26:04;;;;;;;;;5.00;4.00;;;;;21.45;50.60;98612.20;110140;1264;18635;-31
2024/01/03 02:28:31;;;;;;;;;4.00;4.00;;;;;21.45;50.34;98604.33;110160;1249;19606;-31
2024/01/03 02:30:59;;;;;;;;;4.00;2.00;;;;;21.44;50.37;98601.58;110117;1264;19714;-31
2024/01/03 02:33:26;;;;;;;;;4.33;4.00;;;;;21.44;50.08;98599.07;110157;1256;18605;-31
2024/01/03 02:35:53;;;;;;;;;4.00;2.00;;;;;21.44;50.42;98598.23;110186;1264;21530;-30
2024/01/03 02:38:21;;;;;;;;;5.00;4.00;;;;;21.44;50.15;98596.45;110155;1249;19248;-30
2024/01/03 02:40:51;;;;;;;;;4.00;4.00;;;;;21.44;50.07;98592.79;110107;1264;18609;-31
2024/01/03 02:43:18;;;;;;;;;3.00;3.00;;;;;21.44;50.10;98584.95;110092;1264;19485;-31
2024/01/03 02:45:46;;;;;;;;;4.00;4.00;;;;;21.44;50.33;98580.10;110090;1248;19257;-31
2024/01/03 02:48:13;;;;;;;;;5.00;5.00;;;;;21.44;50.29;98575.27;110124;1247;20006;-31
2024/01/03 02:50:44;;;;;;;;;3.00;3.00;;;;;21.44;50.30;98575.11;110192;1264;18228;-31
2024/01/03 02:53:11;;;;;;;;;4.00;4.00;;;;;21.43;50.29;98573.22;110109;1247;19237;-30
2024/01/03 02:55:38;;;;;;;;;2.00;2.00;;;;;21.44;50.04;98571.87;110111;1248;19966;-30
2024/01/03 02:58:06;;;;;;;;;2.00;2.00;;;;;21.43;49.93;98563.86;110142;1256;19519;-30
2024/01/03 03:00:33;;;;;;;;;5.00;4.00;;;;;21.43;50.21;98558.89;110157;1264;18119;-30
2024/01/03 03:03:00;;;;;;;;;4.00;2.67;;;;;21.43;50.30;98554.44;110197;1264;18547;-30
2024/01/03 03:05:28;;;;;;;;;4.00;4.00;;;;;21.42;50.20;98552.77;110138;1264;19676;-31
2024/01/03 03:07:55;;;;;;;;;4.00;4.00;;;;;21.43;50.24;98549.48;110159;1264;18482;-30
2024/01/03 03:10:22;;;;;;;;;4.00;4.00;;;;;21.42;50.08;98541.02;110108;1249;20048;-30
2024/01/03 03:12:50;;;;;;;;;6.00;5.00;;;;;21.41;49.90;98543.27;110085;1257;21937;-31
2024/01/03 03:15:17;;;;;;;;;4.00;4.00;;;;;21.41;50.13;98535.84;110107;1249;19294;-30
2024/01/03 03:17:44;;;;;;;;;4.00;3.00;;;;;21.42;49.83;98537.27;110135;1264;18556;-30
2024/01/03 03:20:12;;;;;;;;;2.00;2.00;;;;;21.42;49.86;98531.44;110138;1264;19359;-30
2024/01/03 03:22:39;;;;;;;;;3.33;3.33;;;;;21.41;49.94;98529.33;110157;1249;19372;-31
2024/01/03 03:25:07;;;;;;;;;2.00;2.00;;;;;21.41;49.97;98527.76;110179;1249;19880;-30
2024/01/03 03:27:34;;;;;;;;;4.33;4.00;;;;;21.40;50.13;98523.98;110109;1263;19448;-31
2024/01/03 03:30:02;;;;;;;;;4.00;4.00;;;;;21.41;50.01;98522.86;110058;1248;20496;-30
2024/01/03 03:32:29;;;;;;;;;4.00;4.00;;;;;21.41;49.84;98521.45;110031;1249;20408;-30
2024/01/03 03:34:57;;;;;;;;;5.00;5.00;;;;;21.41;50.09;98517.95;110169;1248;19457;-30
2024/01/03 03:37:25;;;;;;;;;4.00;4.00;;;;;21.42;49.70;98516.45;110188;1250;19288;-30
2024/01/03 03:39:52;;;;;;;;;4.00;4.00;;;;;21.41;49.93;98509.30;110167;1264;20211;-30
2024/01/03 03:42:19;;;;;;;;;4.00;4.00;;;;;21.40;49.79;98509.19;110139;1263;21965;-30
2024/01/03 03:44:47;;;;;;;;;5.00;4.00;;;;;21.41;49.87;98503.86;110099;1257;21914;-30
2024/01/03 03:47:14;;;;;;;;;2.00;2.00;;;;;21.41;49.66;98504.17;110133;1248;18618;-30
2024/01/03 03:49:41;;;;;;;;;4.00;4.00;;;;;21.40;49.41;98502.11;110100;1264;22049;-31
2024/01/03 03:52:09;;;;;;;;;2.00;2.00;;;;;21.40;49.75;98500.73;110107;1249;19253;-30
2024/01/03 03:54:36;;;;;;;;;2.00;2.00;;;;;21.41;49.68;98495.46;110123;1248;22336;-30
2024/01/03 03:57:03;;;;;;;;;4.00;4.00;;;;;21.40;49.72;98489.73;110110;1249;19680;-31
2024/01/03 03:59:31;;;;;;;;;4.00;2.00;;;;;21.39;49.56;98487.92;110116;1249;19536;-30
2024/01/03 04:01:58;;;;;;;;;2.00;2.00;;;;;21.39;49.70;98487.85;110106;1264;18623;-31
2024/01/03 04:04:25;;;;;;;;;2.00;2.00;;;;;21.40;49.89;98483.80;110112;1256;19479;-31
2024/01/03 04:06:53;;;;;;;;;2.00;2.00;;;;;21.39;49.60;98480.48;110145;1248;19195;-30
2024/01/03 04:09:20;;;;;;;;;3.50;3.00;;;;;21.39;49.71;98479.29;110102;1249;19965;-31
2024/01/03 04:11:48;;;;;;;;;2.00;2.00;;;;;21.39;49.75;98478.75;110119;1264;18194;-31
2024/01/03 04:14:15;;;;;;;;;4.00;2.00;;;;;21.38;49.92;98474.42;110125;1248;20243;-31
2024/01/03 04:16:42;;;;;;;;;2.00;2.00;;;;;21.38;49.67;98475.73;110104;1249;19997;-31
2024/01/03 04:19:10;;;;;;;;;2.00;2.00;;;;;21.38;49.76;98466.48;110114;1248;19839;-31
2024/01/03 04:21:37;;;;;;;;;2.00;2.00;;;;;21.39;49.43;98468.91;110089;1249;19352;-31
2024/01/03 04:24:04;;;;;;;;;2.00;2.00;;;;;21.37;49.67;98460.39;110121;1257;21099;-31
2024/01/03 04:26:31;;;;;;;;;4.00;4.00;;;;;21.37;49.52;98462.17;110171;1257;19524;-31
2024/01/03 04:28:59;;;;;;;;;2.00;2.00;;;;;21.37;49.40;98459.77;110132;1248;20566;-32
2024/01/03 04:31:26;;;;;;;;;4.00;4.00;;;;;21.37;49.87;98455.17;110121;1263;20908;-31
2024/01/03 04:33:53;;;;;;;;;2.00;2.00;;;;;21.37;49.72;98460.46;110112;1249;19742;-31
2024/01/03 04:36:21;;;;;;;;;4.00;4.00;;;;;21.37;49.37;98461.02;110124;1249;19374;-30
2024/01/03 04:38:48;;;;;;;;;4.00;4.00;;;;;21.37;49.58;98455.23;110158;1255;18474;-31
2024/01/03 04:41:15;;;;;;;;;2.00;2.00;;;;;21.37;49.31;98452.42;110132;1248;18179;-30
2024/01/03 04:43:43;;;;;;;;;2.00;2.00;;;;;21.37;49.61;98448.01;110115;1249;19372;-31
2024/01/03 04:46:10;;;;;;;;;4.33;4.33;;;;;21.37;49.63;98448.30;110132;1248;20298;-31
2024/01/03 04:48:37;;;;;;;;;2.00;2.00;;;;;21.37;49.56;98442.85;110097;1257;19614;-30
2024/01/03 04:51:05;;;;;;;;;4.00;4.00;;;;;21.37;49.62;98442.52;110102;1248;20036;-30
2024/01/03 04:53:32;;;;;;;;;4.00;4.00;;;;;21.35;49.47;98437.67;110167;1250;21016;-32
2024/01/03 04:55:59;;;;;;;;;2.00;2.00;;;;;21.35;49.35;98441.80;110157;1249;19663;-30
2024/01/03 04:58:27;;;;;;;;;2.00;2.00;;;;;21.36;49.46;98437.46;110118;1264;21602;-31
2024/01/03 05:00:54;;;;;;;;;4.00;4.00;;;;;21.35;49.42;98438.66;110101;1249;20707;-30
2024/01/03 05:03:22;;;;;;;;;4.00;2.00;;;;;21.35;49.09;98435.34;110103;1257;20582;-30
2024/01/03 05:05:49;;;;;;;;;2.00;2.00;;;;;21.35;49.41;98435.11;110112;1249;22744;-31
2024/01/03 05:08:17;;;;;;;;;1.50;1.50;;;;;21.34;49.29;98433.98;110102;1264;19358;-30
2024/01/03 05:10:44;;;;;;;;;4.00;4.00;;;;;21.35;49.43;98436.03;110124;1255;20537;-31
2024/01/03 05:13:11;;;;;;;;;2.00;2.00;;;;;21.35;49.31;98435.27;110144;1249;20396;-31
2024/01/03 05:15:39;;;;;;;;;2.00;2.00;;;;;21.35;49.32;98435.11;110145;1250;21141;-31
2024/01/03 05:18:06;;;;;;;;;4.00;2.00;;;;;21.36;49.36;98432.16;110158;1251;22201;-31
2024/01/03 05:20:33;;;;;;;;;4.00;4.00;;;;;21.35;49.33;98432.92;110135;1249;22544;-31
2024/01/03 05:23:00;;;;;;;;;5.00;2.00;;;;;21.35;49.36;98432.29;110095;1264;19371;-30
2024/01/03 05:25:28;;;;;;;;;4.00;4.00;;;;;21.35;49.44;98430.65;110076;1251;19609;-31
2024/01/03 05:27:55;;;;;;;;;3.00;3.00;;;;;21.35;49.18;98430.11;110085;1257;23039;-31
2024/01/03 05:30:22;;;;;;;;;2.00;2.00;;;;;21.36;49.23;98427.19;110074;1249;22065;-31
2024/01/03 05:32:50;;;;;;;;;4.00;2.00;;;;;21.35;49.23;98426.01;110074;1249;22695;-30
2024/01/03 05:35:17;;;;;;;;;2.00;2.00;;;;;21.36;49.37;98422.90;110084;1265;21968;-30
2024/01/03 05:37:44;;;;;;;;;2.00;2.00;;;;;21.36;49.31;98425.77;110063;1257;20758;-30
2024/01/03 05:40:11;;;;;;;;;2.00;2.00;;;;;21.35;49.32;98421.94;110045;1249;20899;-30
2024/01/03 05:42:39;;;;;;;;;2.00;2.00;;;;;21.36;49.23;98419.78;110076;1251;20012;-30
2024/01/03 05:45:06;;;;;;;;;2.00;2.00;;;;;21.34;49.21;98419.90;110076;1264;20447;-31
2024/01/03 05:47:33;;;;;;;;;2.00;2.00;;;;;21.35;49.23;98415.95;110085;1258;19416;-30
2024/01/03 05:50:01;;;;;;;;;2.00;2.00;;;;;21.35;49.37;98417.30;110067;1251;20110;-31
2024/01/03 05:52:28;;;;;;;;;2.00;2.00;;;;;21.34;49.16;98419.60;110075;1251;21037;-31
2024/01/03 05:54:56;;;;;;;;;4.00;3.00;;;;;21.34;49.37;98414.06;110083;1249;19660;-31
2024/01/03 05:57:23;;;;;;;;;2.00;2.00;;;;;21.35;49.17;98417.20;110072;1257;20015;-31
2024/01/03 05:59:51;;;;;;;;;2.00;2.00;;;;;21.34;49.34;98414.66;110094;1264;19518;-31
2024/01/03 06:02:18;;;;;;;;;2.00;2.00;;;;;21.33;49.36;98411.05;110076;1249;18366;-30
2024/01/03 06:04:46;;;;;;;;;2.00;2.00;;;;;21.33;49.36;98413.72;110091;1251;20068;-31
2024/01/03 06:07:13;;;;;;;;;2.00;2.00;;;;;21.34;49.37;98411.63;110050;1249;20798;-31
2024/01/03 06:09:40;;;;;;;;;2.00;2.00;;;;;21.33;49.29;98413.33;110071;1251;23394;-31
2024/01/03 06:12:08;;;;;;;;;2.00;2.00;;;;;21.33;49.15;98412.79;110068;1249;18653;-30
2024/01/03 06:14:35;;;;;;;;;2.00;2.00;;;;;21.33;49.15;98409.84;110089;1264;21969;-30
2024/01/03 06:17:02;;;;;;;;;2.00;2.00;;;;;21.33;49.45;98409.73;110095;1265;20797;-30
2024/01/03 06:19:30;;;;;;;;;2.00;2.00;;;;;21.33;49.22;98406.70;110090;1257;22890;-30
2024/01/03 06:21:57;;;;;;;;;2.00;2.00;;;;;21.32;49.18;98401.61;110050;1251;20790;-30
2024/01/03 06:24:24;;;;;;;;;2.00;2.00;;;;;21.32;49.54;98399.44;110047;1264;19493;-31
2024/01/03 06:26:52;;;;;;;;;2.00;2.00;;;;;21.32;49.14;98398.66;110071;1257;20104;-31
2024/01/03 06:29:19;;;;;;;;;2.00;2.00;;;;;21.32;49.20;98392.90;110054;1251;20880;-31
2024/01/03 06:31:46;;;;;;;;;4.00;4.00;;;;;21.32;49.12;98393.19;110040;1258;19638;-31
2024/01/03 06:34:13;;;;;;;;;2.00;2.00;;;;;21.33;49.35;98396.96;110059;1264;18857;-31
2024/01/03 06:36:41;;;;;;;;;3.33;2.00;;;;;21.46;49.11;98400.17;110101;1249;20839;-31
2024/01/03 06:39:08;;;;;;;;;2.00;2.00;;;;;21.54;48.85;98401.84;109977;1251;22209;-31
2024/01/03 06:41:35;;;;;;;;;2.00;2.00;;;;;21.50;48.96;98408.54;110062;1251;20114;-31
2024/01/03 06:44:03;;;;;;;;;1.00;1.00;;;;;21.47;49.32;98409.10;110079;1249;20796;-32
2024/01/03 06:46:31;;;;;;;;;2.00;2.00;;;;;21.48;49.36;98409.67;110082;1258;19751;-32
2024/01/03 06:48:58;;;;;;;;;2.00;2.00;;;;;21.51;49.29;98406.61;110058;1264;18691;-32
2024/01/03 06:51:26;;;;;;;;;2.00;2.00;;;;;21.52;49.54;98408.48;110050;1265;23551;-31
2024/01/03 06:53:53;;;;;;;;;2.00;2.00;;;;;21.51;49.49;98404.36;110071;1251;19731;-32
2024/01/03 06:56:20;;;;;;;;;2.00;2.00;;;;;21.51;49.71;98403.34;110071;1249;20058;-32
2024/01/03 06:58:48;;;;;;;;;2.00;2.00;;;;;21.50;49.70;98407.10;110047;1251;20808;-32
2024/01/03 07:01:15;;;;;;;;;4.00;3.00;;;;;21.52;50.06;98403.98;110070;1257;18431;-31
2024/01/03 07:03:42;;;;;;;;;2.00;2.00;;;;;21.57;50.32;98406.77;110070;1249;23954;-31
2024/01/03 07:06:10;;;;;;;;;2.00;2.00;;;;;21.60;50.26;98408.66;110065;1264;19263;-31
2024/01/03 07:08:37;;;;;;;;;2.00;2.00;;;;;21.66;50.17;98409.73;110047;1264;18438;-31
2024/01/03 07:11:04;;;;;;;;;4.00;4.00;;;;;21.54;50.33;98409.76;110026;1251;20467;-31
2024/01/03 07:13:32;;;;;;;;;4.00;3.33;;;;;21.57;50.45;98410.89;110084;1264;19535;-31
2024/01/03 07:15:59;;;;;;;;;4.00;4.00;;;;;21.54;50.68;98409.60;110167;1264;18382;-30
2024/01/03 07:18:27;;;;;;;;;2.00;2.00;;;;;21.56;50.82;98409.91;110042;1251;20400;-31
2024/01/03 07:20:54;;;;;;;;;2.00;2.00;;;;;21.51;50.96;98408.70;110087;1257;21943;-30
2024/01/03 07:23:21;;;;;;;;;2.00;2.00;;;;;21.55;51.03;98409.63;110116;1258;19696;-30
2024/01/03 07:25:48;;;;;;;;;4.00;4.00;;;;;21.59;50.83;98413.22;110146;1255;22455;-31
2024/01/03 07:28:16;;;;;;;;;1.00;1.00;;;;;21.56;50.71;98411.95;110134;1248;20726;-30
2024/01/03 07:30:43;;;;;;;;;2.00;2.00;;;;;21.53;50.80;98413.06;110113;1248;21081;-31
2024/01/03 07:33:11;;;;;;;;;4.00;4.00;;;;;21.62;50.58;98409.45;110105;1249;19992;-30
2024/01/03 07:35:38;;;;;;;;;5.00;4.00;;;;;21.58;50.16;98407.42;110102;1249;22668;-30
2024/01/03 07:38:05;;;;;;;;;2.00;2.00;;;;;21.59;49.57;98407.48;110133;1264;18605;-30
2024/01/03 07:40:33;;;;;;;;;2.00;2.00;;;;;21.55;49.49;98403.58;110120;1249;20278;-31
2024/01/03 07:43:00;;;;;;;;;5.00;5.00;;;;;21.58;49.11;98404.77;110139;1264;24951;-32
2024/01/03 07:45:27;;;;;;;;;3.00;3.00;;;;;21.61;48.40;98402.72;110089;1251;22686;-31
2024/01/03 07:47:54;;;;;;;;;4.00;4.00;;;;;21.62;48.20;98405.70;110109;1264;20001;-30
2024/01/03 07:50:22;;;;;;;;;5.00;4.67;;;;;21.60;48.01;98396.34;110117;1249;20822;-31
2024/01/03 07:52:49;;;;;;;;;4.50;4.00;;;;;21.64;46.81;98400.48;110120;1248;19678;-31
2024/01/03 07:55:16;;;;;;;;;8.00;7.00;;;;;21.64;47.00;98394.20;110166;1248;20196;-31
2024/01/03 07:57:44;;;;;;;;;5.00;5.00;;;;;21.61;46.85;98387.53;110106;1248;20985;-31
2024/01/03 08:00:11;;;;;;;;;5.00;4.00;;;;;21.57;46.36;98389.39;110107;1248;19740;-30
2024/01/03 08:02:39;;;;;;;;;5.67;4.67;;;;;21.50;47.05;98384.46;110135;1247;20494;-30
2024/01/03 08:05:07;;;;;;;;;5.00;5.00;;;;;21.58;46.75;98384.54;110125;1264;19378;-30
2024/01/03 08:07:34;;;;;;;;;5.00;5.00;;;;;21.59;46.51;98385.11;110092;1249;19711;-31
2024/01/03 08:10:02;;;;;;;;;7.00;7.00;;;;;21.59;46.60;98387.52;110146;1264;19724;-31
2024/01/03 08:12:29;;;;;;;;;5.00;5.00;;;;;21.61;46.10;98388.39;110137;1256;23853;-31
2024/01/03 08:14:56;;;;;;;;;8.00;7.00;;;;;21.59;45.73;98392.45;110119;1249;19671;-30
2024/01/03 08:17:24;;;;;;;;;5.00;5.00;;;;;21.63;45.72;98389.38;110176;1256;18723;-30
2024/01/03 08:19:51;;;;;;;;;5.00;5.00;;;;;21.57;45.91;98389.01;110157;1256;20662;-31
2024/01/03 08:22:18;;;;;;;;;5.00;5.00;;;;;21.51;46.24;98395.48;110113;1249;21858;-31
2024/01/03 08:24:46;;;;;;;;;;;;;;;21.51;46.56;98399.98;110200;1256;23484;-30
2024/01/03 08:27:13;;;;;;;;;4.00;4.00;;;;;21.49;46.88;98396.79;110148;1264;19516;-30
2024/01/03 08:29:40;;;;;;;;;5.00;4.00;;;;;21.48;47.53;98390.77;110175;1251;18334;-30
2024/01/03 08:32:07;;;;;;;;;4.00;4.00;;;;;21.55;47.16;98390.58;110129;1249;20055;-31
2024/01/03 08:34:35;;;;;;;;;4.00;4.00;;;;;21.55;47.32;98385.05;110096;1249;20828;-30
2024/01/03 08:37:02;;;;;;;;;5.00;5.00;;;;;21.56;47.58;98382.73;110102;1264;19948;-31
2024/01/03 08:39:30;;;;;;;;;4.00;4.00;;;;;21.53;47.56;98383.27;110109;1264;18674;-31
2024/01/03 08:41:57;;;;;;;;;4.00;4.00;;;;;21.52;48.07;98388.82;110105;1264;22746;-31
2024/01/03 08:44:25;;;;;;;;;4.50;4.00;;;;;21.59;48.01;98387.45;110117;1257;19533;-30
2024/01/03 08:46:52;;;;;;;;;4.00;4.00;;;;;21.61;47.86;98390.00;110120;1264;18497;-30
2024/01/03 08:49:19;;;;;;;;;4.00;4.00;;;;;21.64;47.98;98392.85;110097;1249;20792;-30
2024/01/03 08:51:48;;;;;;;;;4.00;4.00;;;;;21.73;48.04;98392.08;110127;1264;18685;-30
2024/01/03 08:54:15;;;;;;;;;4.00;4.00;;;;;21.73;47.92;98395.83;110158;1249;20239;-31
2024/01/03 08:56:42;;;;;;;;;3.00;3.00;;;;;21.77;48.06;98394.41;110123;1249;21100;-32
2024/01/03 08:59:10;;;;;;;;;4.00;4.00;;;;;21.67;48.47;98389.54;110112;1248;22230;-31
2024/01/03 09:01:37;;;;;;;;;4.00;4.00;;;;;21.62;48.61;98389.29;110132;1263;18657;-30
2024/01/03 09:04:05;;;;;;;;;4.00;4.00;;;;;21.65;48.65;98391.18;110124;1249;20773;-31
2024/01/03 09:06:35;;;;;;;;;7.50;6.00;;;;;21.76;47.40;98392.02;110087;1263;18411;-30
2024/01/03 09:09:02;;;;;;;;;8.00;7.67;;;;;21.70;48.18;98394.15;110029;1249;20136;-30
2024/01/03 09:11:30;;;;;;;;;5.00;5.00;;;;;21.70;48.08;98401.24;110136;1249;20872;-31
2024/01/03 09:13:58;;;;;;;;;8.00;8.00;;;;;21.73;48.05;98408.05;110202;1247;19678;-31
2024/01/03 09:16:26;;;;;;;;;8.00;8.00;;;;;21.74;47.55;98412.52;110206;1255;19862;-31
2024/01/03 09:18:54;;;;;;;;;8.00;7.00;;;;;21.65;48.03;98411.57;110086;1257;20659;-31
2024/01/03 09:21:21;;;;;;;;;11.00;10.00;;;;;21.69;47.73;98411.70;110085;1249;19688;-31
2024/01/03 09:23:48;;;;;;;;;7.50;7.50;;;;;21.71;47.58;98405.17;110055;1249;18744;-31
2024/01/03 09:26:17;;;;;;;;;7.00;7.00;;;;;21.66;47.93;98398.58;110006;1249;22336;-30
2024/01/03 09:28:44;;;;;;;;;8.00;8.00;;;;;21.73;47.22;98409.77;110032;1264;18553;-30
2024/01/03 09:31:11;;;;;;;;;11.00;11.00;;;;;21.83;46.58;98408.34;110078;1251;22271;-31
2024/01/03 09:33:39;;;;;;;;;11.00;11.00;;;;;21.74;46.59;98416.89;110126;1251;20644;-31
2024/01/03 09:36:06;;;;;;;;;11.00;10.00;;;;;21.74;45.70;98415.89;110030;1249;19677;-31
2024/01/03 09:38:33;;;;;;;;;10.00;8.00;;;;;21.73;45.82;98409.23;110065;1251;20170;-31
2024/01/03 09:41:01;;;;;;;;;14.00;13.00;;;;;21.61;46.01;98406.44;110052;1265;22761;-31
2024/01/03 09:43:28;;;;;;;;;17.50;17.50;;;;;21.48;46.10;98413.33;110095;1258;19874;-31
2024/01/03 09:45:55;;;;;;;;;15.00;14.00;;;;;21.34;45.63;98416.40;110078;1251;20195;-32
2024/01/03 09:48:22;;;;;;;;;20.00;18.00;;;;;21.31;45.50;98419.91;110073;1251;22843;-32
2024/01/03 09:50:50;;;;;;;;;15.00;15.00;;;;;21.22;45.32;98418.39;110090;1251;20049;-31
2024/01/03 09:53:17;;;;;;;;;14.00;14.00;;;;;21.15;44.89;98420.36;110093;1251;20302;-30
2024/01/03 09:55:44;;;;;;;;;16.00;14.00;;;;;21.11;44.73;98417.62;110092;1251;20796;-30
2024/01/03 09:58:12;;;;;;;;;16.00;15.00;;;;;21.23;45.04;98420.52;110115;1249;19935;-31
2024/01/03 10:00:39;;;;;;;;;14.00;14.00;;;;;21.44;45.42;98423.29;110078;1249;20069;-31
2024/01/03 10:03:07;;;;;;;;;14.67;13.67;;;;;21.49;45.97;98430.02;110086;1264;19393;-30
2024/01/03 10:05:35;;;;;;;;;12.50;12.00;;;;;21.47;46.29;98430.25;110083;1264;22348;-32
2024/01/03 10:08:03;;;;;;;;;12.00;12.00;;;;;21.48;46.24;98425.33;110115;1257;20466;-31
2024/01/03 10:10:30;;;;;;;;;14.50;14.00;;;;;21.52;46.32;98423.77;110127;1249;20749;-32
2024/01/03 10:12:58;;;;;;;;;13.50;11.50;;;;;21.55;46.07;98420.20;110096;1249;19943;-31
2024/01/03 10:15:25;;;;;;;;;11.00;11.00;;;;;21.57;46.53;98414.61;110089;1252;20160;-31
2024/01/03 10:17:53;;;;;;;;;13.00;10.50;;;;;21.58;46.34;98412.55;110093;1251;20816;-31
2024/01/03 10:20:20;;;;;;;;;9.00;9.00;;;;;21.57;46.45;98415.48;110091;1251;22902;-31
2024/01/03 10:22:47;;;;;;;;;11.00;9.00;;;;;21.64;47.05;98415.04;110072;1250;20110;-31
2024/01/03 10:25:14;;;;;;;;;11.00;11.00;;;;;21.70;47.20;98414.23;110074;1264;19409;-31
2024/01/03 10:27:42;;;;;;;;;10.00;9.00;;;;;21.67;47.05;98414.45;110089;1252;20030;-30
2024/01/03 10:30:10;;;;;;;;;9.33;8.00;;;;;21.68;47.36;98413.40;110079;1251;20159;-31
2024/01/03 10:32:37;;;;;;;;;10.00;8.00;;;;;21.70;47.53;98420.38;110074;1251;20763;-31
2024/01/03 10:35:04;;;;;;;;;8.00;8.00;;;;;21.65;47.55;98420.38;110068;1249;23944;-31
2024/01/03 10:37:32;;;;;;;;;11.00;11.00;;;;;21.64;48.22;98423.83;110058;1249;20092;-31
2024/01/03 10:40:00;;;;;;;;;7.33;7.33;;;;;21.69;47.93;98430.39;110039;1258;20887;-31
2024/01/03 10:42:27;;;;;;;;;9.00;7.50;;;;;21.69;47.87;98430.48;110063;1257;22216;-31
2024/01/03 10:44:55;;;;;;;;;9.00;8.00;;;;;21.54;48.32;98425.46;110042;1249;20055;-32
2024/01/03 10:47:22;;;;;;;;;10.00;10.00;;;;;21.58;48.01;98422.84;110082;1264;20650;-31
2024/01/03 10:49:49;;;;;;;;;8.00;8.00;;;;;21.54;47.80;98424.37;110057;1258;19560;-32
2024/01/03 10:52:17;;;;;;;;;10.00;8.00;;;;;21.57;47.85;98423.10;110063;1249;21248;-31
2024/01/03 10:54:44;;;;;;;;;7.00;7.00;;;;;21.57;47.84;98427.23;110047;1251;20942;-31
2024/01/03 10:57:12;;;;;;;;;8.00;7.50;;;;;21.56;47.94;98427.95;110056;1264;18735;-31
2024/01/03 10:59:40;;;;;;;;;9.00;8.00;;;;;21.58;47.82;98429.52;110095;1253;20017;-32
2024/01/03 11:02:07;;;;;;;;;8.00;7.00;;;;;21.51;48.02;98426.55;110050;1264;19425;-32
2024/01/03 11:04:34;;;;;;;;;10.00;10.00;;;;;21.47;48.33;98417.38;110059;1264;22331;-32
2024/01/03 11:07:02;;;;;;;;;10.00;7.00;;;;;21.48;47.91;98422.53;110077;1264;18705;-32
2024/01/03 11:09:31;;;;;;;;;11.00;10.00;;;;;21.49;48.05;98429.48;110063;1251;20775;-33
2024/01/03 11:11:58;;;;;;;;;11.00;10.50;;;;;21.44;48.08;98428.73;110089;1264;18593;-32
2024/01/03 11:14:26;;;;;;;;;11.00;10.00;;;;;21.42;47.86;98431.41;110062;1251;20072;-32
2024/01/03 11:16:53;;;;;;;;;11.50;11.50;;;;;21.32;47.50;98424.10;110092;1264;19492;-32
2024/01/03 11:19:21;;;;;;;;;14.00;12.00;;;;;21.29;47.21;98422.42;110075;1265;18613;-32
2024/01/03 11:21:48;;;;;;;;;14.00;14.00;;;;;21.31;46.83;98417.35;110046;1251;20348;-31
2024/01/03 11:24:15;;;;;;;;;10.00;10.00;;;;;21.34;46.64;98411.33;109948;1264;19746;-31